createdAt,value
2023-04-23T00:00:14.932Z,66.80
2023-04-23T00:02:44.878Z,40.10
2023-04-23T00:05:13.127Z,23.30
2023-04-23T00:07:41.436Z,1.00
2023-04-23T00:10:09.417Z,1.00
2023-04-23T00:12:36.752Z,1.00
2023-04-23T00:15:05.317Z,1.00
2023-04-23T00:17:32.329Z,99.90
2023-04-23T00:19:59.377Z,99.90
2023-04-23T00:22:26.362Z,99.90
2023-04-23T00:24:53.326Z,99.90
2023-04-23T00:27:21.277Z,99.90
2023-04-23T00:29:48.273Z,99.90
2023-04-23T00:32:15.225Z,99.90
2023-04-23T00:34:42.380Z,1.00
2023-04-23T00:37:09.632Z,99.90
2023-04-23T00:39:38.837Z,1.00
2023-04-23T00:42:11.675Z,99.90
2023-04-23T00:44:39.321Z,99.90
2023-04-23T00:47:08.037Z,99.90
2023-04-23T00:49:35.998Z,10.40
2023-04-23T00:52:04.096Z,1.00
2023-04-23T00:54:31.302Z,99.90
2023-04-23T00:56:58.688Z,99.90
2023-04-23T00:59:30.329Z,99.90
2023-04-23T01:01:57.343Z,1.00
2023-04-23T01:04:27.934Z,99.90
2023-04-23T01:06:55.584Z,99.90
2023-04-23T01:09:23.719Z,1.00
2023-04-23T01:11:52.119Z,1.00
2023-04-23T01:14:19.164Z,1.00
2023-04-23T01:16:47.154Z,99.90
2023-04-23T01:19:16.312Z,99.90
2023-04-23T01:21:43.501Z,99.90
2023-04-23T01:24:10.987Z,99.90
2023-04-23T01:26:39.069Z,99.90
2023-04-23T01:29:06.066Z,99.90
2023-04-23T01:31:33.370Z,99.90
2023-04-23T01:34:01.945Z,99.90
2023-04-23T01:36:29.958Z,99.90
2023-04-23T01:38:57.001Z,99.90
2023-04-23T01:41:24.170Z,99.90
2023-04-23T01:43:51.233Z,99.90
2023-04-23T01:46:18.338Z,1.00
2023-04-23T01:48:45.276Z,1.00
2023-04-23T01:51:12.217Z,1.00
2023-04-23T01:53:39.099Z,1.00
2023-04-23T01:56:06.693Z,14.30
2023-04-23T01:58:33.565Z,75.00
2023-04-23T02:01:00.490Z,99.90
2023-04-23T02:03:30.239Z,99.90
2023-04-23T02:05:58.634Z,99.90
2023-04-23T02:08:26.375Z,1.00
2023-04-23T02:10:53.240Z,1.00
2023-04-23T02:13:20.237Z,73.10
2023-04-23T02:15:47.146Z,99.90
2023-04-23T02:18:14.030Z,99.90
2023-04-23T02:20:41.701Z,99.90
2023-04-23T02:23:09.008Z,1.00
2023-04-23T02:25:38.703Z,99.90
2023-04-23T02:28:07.886Z,99.90
2023-04-23T02:30:35.484Z,99.90
2023-04-23T02:33:02.690Z,1.00
2023-04-23T02:35:29.962Z,36.40
2023-04-23T02:37:57.013Z,67.40
2023-04-23T02:40:24.008Z,99.90
2023-04-23T02:42:51.205Z,99.90
2023-04-23T02:45:18.148Z,99.90
2023-04-23T02:47:45.140Z,99.90
2023-04-23T02:50:12.064Z,99.90
2023-04-23T02:52:39.018Z,99.90
2023-04-23T02:55:07.536Z,99.90
2023-04-23T02:57:34.613Z,99.90
2023-04-23T03:00:01.713Z,99.90
2023-04-23T03:02:28.722Z,99.90
2023-04-23T03:04:55.781Z,99.90
2023-04-23T03:07:22.949Z,99.90
2023-04-23T03:09:49.824Z,99.90
2023-04-23T03:12:16.843Z,99.90
2023-04-23T03:14:44.280Z,99.90
2023-04-23T03:17:11.300Z,99.90
2023-04-23T03:19:38.149Z,99.90
2023-04-23T03:22:05.898Z,99.90
2023-04-23T03:24:35.468Z,99.90
2023-04-23T03:27:02.370Z,99.90
2023-04-23T03:29:29.349Z,99.90
2023-04-23T03:31:56.851Z,99.90
2023-04-23T03:34:23.814Z,99.90
2023-04-23T03:36:51.263Z,99.90
2023-04-23T03:39:18.319Z,99.90
2023-04-23T03:41:45.936Z,99.90
2023-04-23T03:44:12.914Z,99.90
2023-04-23T03:46:39.828Z,99.90
2023-04-23T03:49:06.699Z,99.90
2023-04-23T03:51:33.562Z,99.90
2023-04-23T03:54:00.651Z,99.90
2023-04-23T03:56:27.551Z,99.90
2023-04-23T03:58:54.648Z,99.90
2023-04-23T04:01:21.596Z,99.90
2023-04-23T04:03:48.619Z,99.90
2023-04-23T04:06:15.913Z,99.90
2023-04-23T04:08:42.817Z,99.90
2023-04-23T04:11:09.771Z,99.90
2023-04-23T04:13:36.698Z,99.90
2023-04-23T04:16:03.708Z,99.90
2023-04-23T04:18:31.257Z,99.90
2023-04-23T04:20:58.258Z,99.90
2023-04-23T04:23:25.220Z,99.90
2023-04-23T04:25:54.718Z,92.20
2023-04-23T04:28:21.598Z,4.70
2023-04-23T04:30:50.410Z,1.00
2023-04-23T04:33:17.327Z,1.00
2023-04-23T04:35:45.862Z,99.90
2023-04-23T04:38:12.745Z,99.90
2023-04-23T04:40:40.085Z,62.30
2023-04-23T04:43:07.305Z,99.90
2023-04-23T04:45:34.242Z,99.90
2023-04-23T04:48:01.223Z,1.00
2023-04-23T04:50:28.146Z,99.90
2023-04-23T04:52:55.032Z,36.60
2023-04-23T04:55:22.086Z,99.90
2023-04-23T04:57:48.972Z,1.00
2023-04-23T05:00:28.380Z,99.90
2023-04-23T05:02:56.392Z,99.90
2023-04-23T05:05:24.967Z,99.90
2023-04-23T05:07:54.398Z,99.90
2023-04-23T05:10:21.863Z,99.90
2023-04-23T05:12:48.835Z,99.90
2023-04-23T05:15:15.875Z,99.90
2023-04-23T05:17:43.698Z,95.30
2023-04-23T05:20:11.417Z,1.00
2023-04-23T05:22:39.621Z,1.00
2023-04-23T05:25:07.288Z,99.90
2023-04-23T05:27:35.538Z,99.90
2023-04-23T05:30:04.162Z,99.90
2023-04-23T05:32:31.269Z,49.70
2023-04-23T05:35:00.189Z,1.00
2023-04-23T05:37:27.222Z,1.00
2023-04-23T05:39:54.330Z,1.00
2023-04-23T05:42:21.493Z,36.70
2023-04-23T05:44:48.365Z,34.50
2023-04-23T05:47:15.451Z,98.00
2023-04-23T05:49:42.437Z,99.90
2023-04-23T05:52:09.388Z,99.90
2023-04-23T05:54:36.433Z,99.90
2023-04-23T05:57:05.213Z,99.90
2023-04-23T05:59:32.302Z,99.90
2023-04-23T06:01:59.454Z,99.90
2023-04-23T06:04:27.253Z,99.90
2023-04-23T06:06:54.828Z,99.90
2023-04-23T06:09:22.029Z,99.90
2023-04-23T06:11:50.759Z,99.90
2023-04-23T06:14:17.821Z,99.90
2023-04-23T06:16:44.969Z,99.90
2023-04-23T06:19:11.953Z,99.90
2023-04-23T06:21:39.406Z,99.90
2023-04-23T06:24:08.137Z,99.90
2023-04-23T06:26:35.226Z,99.90
2023-04-23T06:29:02.185Z,99.90
2023-04-23T06:31:29.380Z,99.90
2023-04-23T06:33:56.665Z,99.90
2023-04-23T06:36:23.671Z,99.70
2023-04-23T06:38:50.616Z,99.60
2023-04-23T06:41:17.644Z,99.80
2023-04-23T06:43:46.015Z,99.70
2023-04-23T06:46:12.936Z,99.90
2023-04-23T06:48:39.873Z,99.70
2023-04-23T06:51:07.176Z,98.80
2023-04-23T06:53:34.618Z,98.30
2023-04-23T06:56:01.580Z,98.60
2023-04-23T06:58:32.338Z,98.90
2023-04-23T07:01:05.727Z,98.60
2023-04-23T07:03:32.766Z,98.70
2023-04-23T07:05:59.873Z,99.30
2023-04-23T07:08:26.807Z,99.00
2023-04-23T07:10:53.815Z,98.80
2023-04-23T07:13:20.947Z,99.20
2023-04-23T07:15:49.166Z,99.20
2023-04-23T07:18:16.180Z,99.20
2023-04-23T07:20:43.257Z,97.80
2023-04-23T07:23:11.107Z,97.60
2023-04-23T07:25:38.193Z,98.20
2023-04-23T07:28:05.285Z,97.20
2023-04-23T07:30:32.257Z,97.30
2023-04-23T07:32:59.291Z,96.20
2023-04-23T07:35:26.948Z,96.50
2023-04-23T07:37:56.077Z,95.70
2023-04-23T07:40:23.848Z,95.70
2023-04-23T07:42:51.671Z,94.50
2023-04-23T07:45:19.648Z,94.30
2023-04-23T07:47:46.816Z,94.10
2023-04-23T07:50:14.280Z,93.30
2023-04-23T07:52:41.600Z,93.70
2023-04-23T07:55:09.784Z,93.20
2023-04-23T07:57:36.782Z,94.20
2023-04-23T08:00:05.621Z,93.30
2023-04-23T08:02:32.693Z,92.90
2023-04-23T08:04:59.745Z,93.70
2023-04-23T08:07:26.951Z,92.60
2023-04-23T08:09:54.069Z,91.40
2023-04-23T08:12:21.379Z,91.20
2023-04-23T08:14:48.369Z,90.00
2023-04-23T08:17:15.406Z,88.70
2023-04-23T08:19:42.605Z,88.70
2023-04-23T08:22:10.777Z,84.20
2023-04-23T08:24:37.736Z,85.20
2023-04-23T08:27:04.682Z,84.20
2023-04-23T08:29:31.603Z,83.50
2023-04-23T08:31:58.558Z,83.80
2023-04-23T08:34:26.249Z,85.70
2023-04-23T08:36:53.179Z,84.10
2023-04-23T08:39:20.193Z,78.00
2023-04-23T08:41:54.356Z,76.80
2023-04-23T08:44:25.861Z,78.30
2023-04-23T08:46:54.691Z,77.50
2023-04-23T08:49:21.729Z,76.90
2023-04-23T08:51:56.285Z,74.80
2023-04-23T08:54:27.602Z,73.80
2023-04-23T08:56:59.052Z,75.70
2023-04-23T08:59:31.909Z,75.00
2023-04-23T09:02:01.371Z,73.90
2023-04-23T09:04:29.003Z,75.00
2023-04-23T09:06:56.833Z,74.30
2023-04-23T09:09:24.546Z,75.80
2023-04-23T09:11:54.117Z,75.50
2023-04-23T09:14:25.632Z,73.10
2023-04-23T09:16:53.090Z,73.10
2023-04-23T09:19:20.108Z,72.60
2023-04-23T09:21:47.145Z,71.90
2023-04-23T09:24:15.054Z,72.60
2023-04-23T09:26:49.903Z,71.40
2023-04-23T09:29:23.578Z,70.70
2023-04-23T09:32:03.308Z,70.80
2023-04-23T09:34:34.439Z,69.90
2023-04-23T09:37:01.428Z,70.10
2023-04-23T09:39:28.443Z,69.20
2023-04-23T09:42:03.017Z,67.70
2023-04-23T09:44:33.138Z,67.80
2023-04-23T09:47:09.964Z,68.00
2023-04-23T09:49:46.924Z,66.10
2023-04-23T09:52:14.059Z,65.50
2023-04-23T09:54:41.070Z,67.00
2023-04-23T09:57:08.943Z,65.50
2023-04-23T09:59:47.120Z,64.20
2023-04-23T10:02:17.771Z,64.30
2023-04-23T10:04:45.149Z,63.50
2023-04-23T10:09:44.879Z,62.90
2023-04-23T10:12:31.365Z,63.40
2023-04-23T10:15:00.392Z,63.00
2023-04-23T10:17:27.593Z,60.90
2023-04-23T10:19:56.053Z,61.30
2023-04-23T10:22:24.316Z,58.60
2023-04-23T10:24:56.323Z,59.00
2023-04-23T10:27:40.194Z,58.00
2023-04-23T10:30:13.385Z,58.90
2023-04-23T10:32:42.350Z,58.00
2023-04-23T10:35:10.041Z,60.90
2023-04-23T10:37:38.435Z,58.30
2023-04-23T10:40:11.708Z,57.20
2023-04-23T10:42:40.975Z,56.10
2023-04-23T10:45:30.559Z,56.50
2023-04-23T10:47:58.558Z,58.30
2023-04-23T10:50:27.724Z,56.70
2023-04-23T10:52:57.307Z,56.40
2023-04-23T10:55:27.049Z,57.40
2023-04-23T10:58:07.517Z,55.70
2023-04-23T11:00:54.695Z,55.70
2023-04-23T11:03:43.564Z,55.20
2023-04-23T11:06:38.251Z,55.80
2023-04-23T11:09:27.910Z,54.90
2023-04-23T11:11:55.876Z,54.40
2023-04-23T11:14:45.622Z,55.00
2023-04-23T11:17:14.352Z,55.00
2023-04-23T11:19:43.047Z,55.20
2023-04-23T11:22:16.838Z,51.90
2023-04-23T11:24:46.761Z,52.90
2023-04-23T11:27:16.882Z,51.20
2023-04-23T11:29:46.485Z,51.80
2023-04-23T11:32:16.075Z,50.00
2023-04-23T11:34:44.922Z,49.80
2023-04-23T11:37:13.285Z,48.00
2023-04-23T11:39:42.256Z,46.40
2023-04-23T11:42:20.382Z,47.10
2023-04-23T11:44:48.045Z,46.80
2023-04-23T11:47:18.873Z,46.70
2023-04-23T11:49:46.186Z,46.00
2023-04-23T11:52:14.505Z,46.10
2023-04-23T11:54:42.238Z,44.90
2023-04-23T11:57:10.280Z,45.00
2023-04-23T11:59:37.616Z,45.30
2023-04-23T12:02:04.910Z,44.50
2023-04-23T12:04:33.334Z,44.40
2023-04-23T12:07:00.842Z,44.00
2023-04-23T12:09:29.476Z,43.90
2023-04-23T12:11:58.491Z,44.00
2023-04-23T12:14:30.822Z,44.40
2023-04-23T12:16:59.576Z,44.60
2023-04-23T12:19:29.312Z,44.30
2023-04-23T12:21:57.263Z,45.00
2023-04-23T12:24:29.550Z,45.20
2023-04-23T12:27:02.738Z,45.60
2023-04-23T12:29:31.723Z,45.30
2023-04-23T12:32:00.411Z,45.20
2023-04-23T12:34:27.451Z,45.20
2023-04-23T12:36:57.861Z,45.20
2023-04-23T12:39:34.100Z,45.80
2023-04-23T12:42:05.177Z,45.30
2023-04-23T12:48:20.159Z,47.10
2023-04-23T12:50:47.781Z,46.60
2023-04-23T12:57:03.094Z,46.30
2023-04-23T12:59:31.394Z,46.10
2023-04-23T13:02:03.118Z,45.60
2023-04-23T13:04:34.860Z,45.50
2023-04-23T13:07:02.160Z,46.30
2023-04-23T13:13:17.001Z,45.70
2023-04-23T13:15:44.072Z,45.80
2023-04-23T13:18:11.073Z,45.20
2023-04-23T13:20:38.026Z,44.40
2023-04-23T13:23:04.972Z,46.20
2023-04-23T13:25:32.141Z,45.00
2023-04-23T13:27:59.111Z,44.60
2023-04-23T13:30:26.064Z,45.80
2023-04-23T13:32:53.698Z,43.10
2023-04-23T13:35:20.784Z,44.60
2023-04-23T13:37:47.785Z,44.60
2023-04-23T13:40:14.930Z,44.20
2023-04-23T13:42:41.953Z,44.70
2023-04-23T13:45:09.165Z,43.90
2023-04-23T13:47:36.310Z,44.00
2023-04-23T13:50:06.816Z,44.90
2023-04-23T13:52:35.351Z,44.00
2023-04-23T13:55:03.707Z,45.50
2023-04-23T13:57:30.984Z,44.60
2023-04-23T13:59:58.528Z,44.50
2023-04-23T14:02:25.694Z,44.70
2023-04-23T14:04:52.991Z,44.70
2023-04-23T14:07:20.063Z,44.90
2023-04-23T14:09:47.485Z,43.90
2023-04-23T14:12:14.509Z,42.70
2023-04-23T14:14:41.459Z,42.40
2023-04-23T14:17:09.069Z,42.30
2023-04-23T14:19:37.887Z,42.60
2023-04-23T14:22:04.944Z,41.00
2023-04-23T14:24:40.542Z,40.90
2023-04-23T14:27:07.584Z,40.80
2023-04-23T14:29:46.569Z,41.10
2023-04-23T14:32:14.337Z,40.80
2023-04-23T14:34:41.332Z,40.30
2023-04-23T14:37:08.740Z,40.70
2023-04-23T14:39:35.787Z,40.80
2023-04-23T14:42:02.993Z,40.30
2023-04-23T14:44:30.161Z,40.40
2023-04-23T14:46:57.252Z,40.00
2023-04-23T14:49:24.659Z,40.80
2023-04-23T14:51:57.840Z,40.20
2023-04-23T14:54:25.089Z,40.70
2023-04-23T14:56:52.148Z,40.40
2023-04-23T14:59:19.284Z,41.00
2023-04-23T15:01:46.472Z,41.20
2023-04-23T15:04:13.971Z,42.20
2023-04-23T15:06:41.046Z,41.80
2023-04-23T15:09:08.004Z,41.40
2023-04-23T15:11:35.245Z,42.20
2023-04-23T15:14:23.505Z,42.80
2023-04-23T15:16:50.625Z,43.30
2023-04-23T15:19:18.593Z,43.00
2023-04-23T15:21:46.689Z,42.30
2023-04-23T15:24:14.245Z,42.40
2023-04-23T15:26:41.423Z,43.30
2023-04-23T15:29:09.245Z,43.00
2023-04-23T15:31:37.316Z,43.00
2023-04-23T15:34:06.271Z,43.10
2023-04-23T15:36:34.867Z,43.90
2023-04-23T15:39:01.878Z,44.20
2023-04-23T15:41:29.250Z,44.20
2023-04-23T15:43:56.740Z,45.30
2023-04-23T15:46:23.736Z,45.80
2023-04-23T15:48:50.684Z,45.80
2023-04-23T15:51:17.914Z,46.40
2023-04-23T15:53:44.897Z,46.20
2023-04-23T15:56:11.854Z,45.90
2023-04-23T15:58:38.964Z,46.40
2023-04-23T16:01:07.483Z,47.20
2023-04-23T16:03:34.860Z,47.60
2023-04-23T16:06:02.315Z,47.80
2023-04-23T16:08:29.342Z,48.30
2023-04-23T16:10:58.187Z,48.30
2023-04-23T16:13:25.363Z,48.60
2023-04-23T16:15:52.846Z,48.70
2023-04-23T16:18:19.892Z,48.60
2023-04-23T16:20:46.862Z,48.10
2023-04-23T16:23:14.521Z,48.30
2023-04-23T16:25:41.712Z,48.50
2023-04-23T16:28:08.784Z,48.80
2023-04-23T16:30:35.892Z,49.70
2023-04-23T16:33:02.953Z,49.90
2023-04-23T16:35:29.985Z,49.60
2023-04-23T16:37:56.929Z,50.10
2023-04-23T16:40:24.067Z,50.50
2023-04-23T16:42:51.074Z,51.10
2023-04-23T16:45:23.043Z,54.60
2023-04-23T16:47:53.303Z,58.10
2023-04-23T16:50:20.418Z,59.60
2023-04-23T16:52:47.581Z,60.80
2023-04-23T16:55:14.761Z,64.40
2023-04-23T16:57:41.816Z,67.80
2023-04-23T17:00:09.949Z,70.40
2023-04-23T17:02:38.122Z,75.80
2023-04-23T17:05:06.434Z,88.50
2023-04-23T17:07:33.534Z,97.20
2023-04-23T17:10:00.524Z,99.90
2023-04-23T17:12:27.576Z,99.90
2023-04-23T17:14:54.499Z,1.00
2023-04-23T17:17:21.497Z,1.00
2023-04-23T17:19:48.542Z,38.10
2023-04-23T17:22:15.564Z,60.00
2023-04-23T17:24:42.695Z,63.50
2023-04-23T17:27:09.870Z,57.00
2023-04-23T17:29:36.866Z,42.70
2023-04-23T17:32:04.527Z,31.90
2023-04-23T17:34:31.718Z,38.10
2023-04-23T17:36:58.876Z,50.60
2023-04-23T17:39:26.162Z,51.60
2023-04-23T17:41:53.471Z,77.10
2023-04-23T17:44:20.509Z,66.50
2023-04-23T17:46:47.707Z,76.30
2023-04-23T17:49:14.841Z,69.80
2023-04-23T17:51:41.835Z,35.10
2023-04-23T17:54:08.884Z,41.50
2023-04-23T17:56:35.862Z,7.10
2023-04-23T17:59:02.885Z,1.00
2023-04-23T18:01:30.356Z,1.00
2023-04-23T18:03:57.673Z,1.00
2023-04-23T18:06:24.858Z,1.00
2023-04-23T18:08:51.976Z,1.00
2023-04-23T18:11:19.337Z,1.00
2023-04-23T18:13:49.246Z,1.00
2023-04-23T18:16:16.453Z,1.00
2023-04-23T18:18:43.404Z,1.00
2023-04-23T18:21:10.370Z,1.00
2023-04-23T18:23:37.421Z,1.00
2023-04-23T18:26:04.394Z,1.00
2023-04-23T18:28:32.921Z,1.00
2023-04-23T18:31:02.756Z,1.00
2023-04-23T18:33:33.200Z,1.00
2023-04-23T18:36:29.027Z,1.00
2023-04-23T18:38:56.403Z,1.00
2023-04-23T18:41:23.743Z,1.00
2023-04-23T18:43:50.782Z,1.00
2023-04-23T18:46:17.974Z,1.00
2023-04-23T18:49:34.379Z,1.00
2023-04-23T18:52:02.407Z,1.00
2023-04-23T18:54:29.647Z,1.00
2023-04-23T18:56:57.479Z,1.00
2023-04-23T18:59:25.056Z,1.00
2023-04-23T19:01:52.414Z,1.00
2023-04-23T19:08:07.119Z,1.00
2023-04-23T19:14:15.881Z,1.00
2023-04-23T19:16:42.807Z,1.00
2023-04-23T19:19:09.766Z,1.00
2023-04-23T19:21:36.756Z,1.00
2023-04-23T19:24:03.952Z,1.00
2023-04-23T19:26:31.034Z,1.00
2023-04-23T19:28:57.944Z,1.00
2023-04-23T19:31:25.004Z,1.00
2023-04-23T19:33:51.995Z,1.00
2023-04-23T19:36:18.853Z,8.60
2023-04-23T19:38:46.549Z,7.60
2023-04-23T19:44:54.591Z,30.60
2023-04-23T19:47:21.581Z,39.90
2023-04-23T19:53:36.492Z,55.70
2023-04-23T19:56:03.610Z,59.00
2023-04-23T19:58:30.716Z,64.20
2023-04-23T20:00:58.298Z,66.60
2023-04-23T20:03:26.491Z,68.70
2023-04-23T20:05:56.321Z,68.10
2023-04-23T20:08:29.181Z,67.60
2023-04-23T20:10:56.545Z,64.40
2023-04-23T20:13:23.978Z,67.00
2023-04-23T20:15:53.779Z,68.40
2023-04-23T20:18:21.776Z,66.00
2023-04-23T20:24:38.239Z,55.90
2023-04-23T20:27:06.949Z,45.60
2023-04-23T20:29:33.991Z,44.40
2023-04-23T20:32:00.963Z,43.70
2023-04-23T20:34:27.931Z,44.10
2023-04-23T20:36:54.976Z,42.80
2023-04-23T20:39:24.433Z,44.10
2023-04-23T20:41:52.644Z,46.40
2023-04-23T20:44:22.725Z,44.80
2023-04-23T20:46:52.935Z,45.20
2023-04-23T20:49:20.041Z,49.40
2023-04-23T20:51:47.117Z,50.10
2023-04-23T20:54:14.046Z,49.60
2023-04-23T20:56:41.041Z,52.00
2023-04-23T20:59:07.934Z,55.90
2023-04-23T21:01:34.922Z,57.00
2023-04-23T21:04:02.366Z,58.20
2023-04-23T21:06:31.369Z,58.90
2023-04-23T21:08:58.404Z,65.20
2023-04-23T21:11:26.249Z,60.10
2023-04-23T21:13:53.632Z,61.60
2023-04-23T21:16:20.662Z,62.90
2023-04-23T21:18:47.600Z,57.40
2023-04-23T21:21:14.535Z,54.50
2023-04-23T21:23:41.622Z,56.00
2023-04-23T21:26:08.542Z,57.50
2023-04-23T21:28:36.675Z,59.00
2023-04-23T21:31:14.631Z,58.40
2023-04-23T21:33:41.617Z,57.70
2023-04-23T21:36:08.595Z,62.60
2023-04-23T21:38:35.624Z,61.60
2023-04-23T21:41:02.589Z,61.00
2023-04-23T21:43:31.540Z,64.90
2023-04-23T21:45:58.444Z,67.30
2023-04-23T21:48:25.363Z,52.90
2023-04-23T21:50:53.727Z,49.00
2023-04-23T21:53:22.685Z,48.80
2023-04-23T21:55:49.661Z,49.00
2023-04-23T21:58:17.960Z,48.40
2023-04-23T22:00:45.959Z,50.80
2023-04-23T22:03:13.349Z,53.40
2023-04-23T22:05:44.333Z,55.60
2023-04-23T22:08:11.269Z,57.00
2023-04-23T22:10:43.056Z,59.20
2023-04-23T22:13:11.177Z,61.40
2023-04-23T22:15:38.506Z,68.40
2023-04-23T22:18:05.965Z,69.00
2023-04-23T22:20:32.952Z,70.40
2023-04-23T22:23:00.001Z,81.30
2023-04-23T22:25:26.875Z,84.70
2023-04-23T22:27:53.953Z,83.70
2023-04-23T22:30:20.950Z,83.90
2023-04-23T22:32:47.889Z,90.50
2023-04-23T22:35:14.856Z,90.70
2023-04-23T22:37:41.795Z,91.80
2023-04-23T22:40:09.714Z,92.60
2023-04-23T22:42:37.566Z,94.20
2023-04-23T22:45:05.008Z,93.90
2023-04-23T22:47:32.204Z,94.20
2023-04-23T22:49:59.279Z,94.80
2023-04-23T22:52:27.107Z,95.50
2023-04-23T22:54:55.129Z,98.80
2023-04-23T22:57:22.287Z,99.60
2023-04-23T22:59:49.316Z,99.50
2023-04-23T23:02:16.659Z,99.90
2023-04-23T23:04:44.014Z,99.90
2023-04-23T23:07:11.289Z,99.90
2023-04-23T23:09:38.202Z,99.90
2023-04-23T23:12:05.612Z,99.90
2023-04-23T23:14:34.048Z,99.90
2023-04-23T23:17:00.997Z,99.90
2023-04-23T23:19:28.086Z,99.90
2023-04-23T23:21:55.087Z,99.90
2023-04-23T23:24:22.909Z,98.80
2023-04-23T23:26:50.873Z,98.40
2023-04-23T23:29:17.812Z,97.20
2023-04-23T23:31:45.028Z,98.10
2023-04-23T23:34:12.437Z,98.20
2023-04-23T23:36:39.466Z,97.10
2023-04-23T23:39:06.956Z,93.80
2023-04-23T23:41:33.944Z,93.60
2023-04-23T23:44:00.967Z,90.10
2023-04-23T23:46:28.150Z,90.70
2023-04-23T23:48:55.537Z,87.20
2023-04-23T23:51:22.474Z,85.80
2023-04-23T23:53:49.381Z,82.20
2023-04-23T23:56:16.314Z,83.20
2023-04-23T23:58:43.219Z,83.80
